Decoded Metar for LFPT (PONTOISE in FRANCE) (IATA:POX) | Meteo·Mobile Aviation Weather
aviador You're here:

LFPT Decoded Metar

PONTOISE in FRANCE
Report Time2019-01-23 06:30:00
UTC Time2019-01-23 06:56:25
Flight Rules vfr VFR
WindCalm
Visibility9999 m
Phenomena:N/A
Clouds:Few 034 Hf
Scattered 048 Hf
Expected CloudBase > 400 ft AGL from Temp-Dew spread
CeilingNone
Temp-1°C (ISA -15)
Dew Point-2°C (93% RH)
AAT-3.3°C
QNH0994 hPa
Density Alt-827 ft
Elevation325 ft
Report Wrong Elevation
Raw Report
METAR LFPT 230630Z AUTO 00000KT 9999 FEW034 SCT048 M01/M02 Q0994=

Extra information for LFPT:More info

Metar Taf Metar & Taf Last 4 Metars F.Rules Stats Wind Profile Meteogram Temp Stats Airport Information Weather charts Add Link Nearby VenuesMetar ALERT Operation Metar Decoded Social comments